Flight Track Log - Related Links

Times and Time Zones

All times are in EDT time to prevent confusion due to time zone crossing. See the EJA727 flight status page for this flight to view local times or setup timezone preferences in your user account.

Time Position Orientation Groundspeed Altitude Reporting Facility
EDT Latitude Longitude Course Direction KTS MPH feet Rate Location/Type
Thu 08:31:59 PM 39.9500 -105.1500 146° Southeast 222 255 7,700  Level Denver TRACON
Thu 08:32:59 PM 40.0000 -105.1000 37° Northeast 266 306 11,300 3,750 Climbing Denver TRACON
Thu 08:33:59 PM 39.9833 -105.0167 105° East 305 351 15,200 3,680 Climbing Denver TRACON
Thu 08:34:14 PM 39.9600 -104.9992 150° Southeast 304 350 15,900 2,883 Climbing Denver Center
Thu 08:35:16 PM 39.8550 -104.9694 168° South 363 418 18,900 2,855 Climbing Denver Center
Thu 08:36:18 PM 39.7494 -104.9389 167° South 394 453 21,800 2,661 Climbing Denver Center
Thu 08:37:00 PM 39.3098 -104.5896 146° Southeast  Level Estimated
Thu 08:37:20 PM 39.6244 -104.9036 168° South 426 490 24,400  Level Denver Center
Thu 08:38:22 PM 39.5064 -104.8689 167° South 439 505 26,700 2,032 Climbing Denver Center
Thu 08:39:24 PM 39.3900 -104.7767 149° Southeast 454 522 28,600 1,561 Climbing Denver Center
Thu 08:40:25 PM 39.2817 -104.6942 149° Southeast 455 524 29,900 1,805 Climbing Denver Center
Thu 08:41:27 PM 39.1881 -104.6197 148° Southeast 466 536 32,300 2,323 Climbing Denver Center
Thu 08:42:29 PM 39.0656 -104.5214 148° Southeast 428 493 34,700 1,984 Climbing Denver Center
Thu 08:43:31 PM 38.9683 -104.4425 148° Southeast 429 494 36,400 1,403 Climbing Denver Center
Thu 08:44:33 PM 38.8539 -104.3522 148° Southeast 431 496 37,600 774 Climbing Denver Center
Thu 08:45:35 PM 38.7511 -104.2750 150° Southeast 441 507 38,000 339 Climbing Denver Center
Thu 08:46:37 PM 38.6283 -104.1786 148° Southeast 457 526 38,300 484 Climbing Denver Center
Thu 08:47:39 PM 38.5208 -104.0981 150° Southeast 464 534 39,000 339 Climbing Denver Center
Thu 08:48:41 PM 38.3975 -104.0019 149° Southeast 464 534 39,000  Level Denver Center
Thu 08:49:43 PM 38.2906 -103.9222 150° Southeast 464 534 39,000  Level Denver Center
Thu 08:50:45 PM 38.1675 -103.8272 149° Southeast 461 531 39,000  Level Denver Center
Thu 08:51:47 PM 38.0603 -103.7464 149° Southeast 465 535 39,000  Level Denver Center
Thu 08:52:49 PM 37.9528 -103.6658 149° Southeast 465 535 39,000  Level Denver Center
Thu 08:54:03 PM 37.8275 -103.5717 149° Southeast 466 536 39,000  Level Denver Center
Thu 08:55:05 PM 37.6989 -103.4756 149° Southeast 473 544 39,000  Level Denver Center
Thu 08:56:19 PM 37.5714 -103.3806 149° Southeast 474 545 39,000  Level Denver Center
Thu 08:57:21 PM 37.4272 -103.2722 149° Southeast 471 542 39,000  Level Denver Center
Thu 08:58:23 PM 37.3183 -103.1917 150° Southeast 471 542 39,000  Level Denver Center
Thu 08:59:25 PM 37.2094 -103.1119 150° Southeast 471 542 39,000  Level Denver Center
Thu 09:00:26 PM 37.0814 -103.0189 150° Southeast 474 545 39,000  Level Denver Center
Thu 09:01:28 PM 36.9736 -102.9394 150° Southeast 470 541 39,000  Level Denver Center
Thu 09:02:28 PM 36.8475 -102.8483 150° Southeast 472 543 39,000  Level Albuquerque Center
Thu 09:03:30 PM 36.7383 -102.7697 150° Southeast 472 543 39,000  Level Albuquerque Center
Thu 09:04:32 PM 36.6197 -102.6822 149° Southeast 471 542 39,000  Level Albuquerque Center
Thu 09:05:34 PM 36.5056 -102.6000 150° Southeast 474 545 39,000 341 Level Albuquerque Center
Thu 09:06:35 PM 36.3953 -102.5189 149° Southeast 466 536 39,700 829 Climbing Albuquerque Center
Thu 09:07:37 PM 36.2872 -102.4403 150° Southeast 455 524 40,700 629 Climbing Albuquerque Center
Thu 09:08:39 PM 36.1803 -102.3642 150° Southeast 446 513 41,000 146 Climbing Albuquerque Center
Thu 09:09:40 PM 36.0717 -102.2867 150° Southeast 448 516 41,000  Level Albuquerque Center
Thu 09:10:42 PM 35.9383 -102.1931 150° Southeast 458 527 41,000  Level Albuquerque Center
Thu 09:11:44 PM 35.8269 -102.1133 150° Southeast 463 533 41,000  Level Albuquerque Center
Thu 09:12:45 PM 35.7131 -102.0344 151° Southeast 467 537 41,000  Level Albuquerque Center
Thu 09:13:47 PM 35.6006 -101.9539 150° Southeast 469 540 41,000  Level Albuquerque Center
Thu 09:14:49 PM 35.5031 -101.8631 143° Southeast 461 531 41,000  Level Albuquerque Center
Thu 09:15:50 PM 35.3886 -101.7325 137° Southeast 471 542 41,000  Level Albuquerque Center
Thu 09:16:52 PM 35.2886 -101.6192 137° Southeast 474 545 41,000  Level Albuquerque Center
Thu 09:17:53 PM 35.1953 -101.5078 136° Southeast 471 542 41,000  Level Albuquerque Center
Thu 09:18:55 PM 35.0994 -101.3964 136° Southeast 473 544 41,000  Level Albuquerque Center
Thu 09:19:57 PM 34.9972 -101.3233 150° Southeast 471 542 41,000  Level Albuquerque Center
Thu 09:20:58 PM 34.8828 -101.2492 152° Southeast 468 539 41,000  Level Albuquerque Center
Thu 09:22:00 PM 34.7464 -101.1628 152° Southeast 461 531 41,000  Level Albuquerque Center
Thu 09:23:01 PM 34.6336 -101.0914 152° Southeast 459 528 41,000  Level Albuquerque Center
Thu 09:24:03 PM 34.5217 -101.0200 152° Southeast 455 524 41,000  Level Albuquerque Center
Thu 09:25:05 PM 34.4083 -100.9500 153° Southeast 456 525 41,000  Level Albuquerque Center
Thu 09:25:50 PM 34.3147 -100.8908 152° Southeast 460 529 41,000  Level Fort Worth Center
Thu 09:26:50 PM 34.2000 -100.8208 153° Southeast 460 529 41,000  Level Fort Worth Center
Thu 09:27:50 PM 34.0850 -100.7486 153° Southeast 460 529 41,000  Level Fort Worth Center
Thu 09:28:50 PM 33.9722 -100.6742 151° Southeast 460 529 41,000  Level Fort Worth Center
Thu 09:29:50 PM 33.8531 -100.6047 154° Southeast 465 535 41,000  Level Fort Worth Center
Thu 09:30:50 PM 33.7358 -100.5306 152° Southeast 465 535 41,000  Level Fort Worth Center
Thu 09:31:50 PM 33.6186 -100.4617 154° Southeast 465 535 41,000  Level Fort Worth Center
Thu 09:32:50 PM 33.5056 -100.3903 152° Southeast 465 535 41,000  Level Fort Worth Center
Thu 09:33:50 PM 33.3883 -100.3192 153° Southeast 465 535 41,000  Level Fort Worth Center
Thu 09:34:50 PM 33.2772 -100.2508 153° Southeast 465 535 41,000  Level Fort Worth Center
Thu 09:35:50 PM 33.1619 -100.1803 153° Southeast 465 535 41,000  Level Fort Worth Center
Thu 09:36:50 PM 33.0444 -100.1097 153° Southeast 465 535 41,000  Level Fort Worth Center
Thu 09:37:50 PM 32.9289 -100.0419 154° Southeast 465 535 41,000  Level Fort Worth Center
Thu 09:38:50 PM 32.8383 -99.9872 153° Southeast 465 535 41,000  Level Fort Worth Center
Thu 09:39:50 PM 32.6856 -99.9014 155° Southeast 471 542 41,000  Level Fort Worth Center
Thu 09:40:50 PM 32.5761 -99.8294 151° Southeast 466 536 41,000  Level Fort Worth Center
Thu 09:41:50 PM 32.4564 -99.7597 154° Southeast 471 542 41,000  Level Fort Worth Center
Thu 09:42:50 PM 32.3494 -99.6758 146° Southeast 460 529 41,000  Level Fort Worth Center
Thu 09:43:50 PM 32.2469 -99.5725 140° Southeast 466 536 41,000  Level Fort Worth Center
Thu 09:44:50 PM 32.1464 -99.4719 140° Southeast 477 549 41,000 -50 Level Fort Worth Center
Thu 09:45:50 PM 32.0414 -99.3692 140° Southeast 483 556 40,900 -1,050 Descending Fort Worth Center
Thu 09:46:50 PM 31.9408 -99.2667 139° Southeast 483 556 38,900 -2,000 Descending Fort Worth Center
Thu 09:47:50 PM 31.8378 -99.1692 141° Southeast 483 556 36,900 -2,000 Descending Fort Worth Center
Thu 09:48:50 PM 31.7431 -99.0744 140° Southeast 470 541 34,900 -2,032 Descending Fort Worth Center
Thu 09:50:56 PM 31.5500 -98.8797 139° Southeast 442 509 30,600 -1,883 Descending Houston Center
Thu 09:51:58 PM 31.4572 -98.7906 141° Southeast 431 496 29,000 -927 Descending Houston Center
Thu 09:52:59 PM 31.3617 -98.6964 140° Southeast 445 512 28,700 -878 Descending Houston Center
Thu 09:54:01 PM 31.2572 -98.5964 141° Southeast 475 547 27,200 -823 Descending Houston Center
Thu 09:55:03 PM 31.1578 -98.4978 140° Southeast 467 537 27,000 -98 Descending Houston Center
Thu 09:56:04 PM 31.0636 -98.4078 141° Southeast 441 507 27,000 -829 Level Houston Center
Thu 09:57:06 PM 30.9700 -98.3178 140° Southeast 435 501 25,300 -1,707 Descending Houston Center
Thu 09:58:07 PM 30.8831 -98.2328 140° Southeast 409 471 23,500 -1,951 Descending Houston Center
Thu 09:59:09 PM 30.7928 -98.1467 141° Southeast 362 417 21,300 -2,585 Descending Houston Center
Thu 10:00:10 PM 30.7167 -98.0722 140° Southeast 357 411 18,200 -2,976 Descending Houston Center
Thu 10:01:12 PM 30.6594 -97.9775 125° Southeast 355 409 15,200 -2,878 Descending Houston Center
Thu 10:02:13 PM 30.5950 -97.8956 132° Southeast 347 399 12,300 -2,537 Descending Houston Center
Thu 10:03:15 PM 30.5147 -97.8639 161° South 309 356 10,000 -2,341 Descending Houston Center
Thu 10:04:16 PM 30.4367 -97.8319 161° South 298 343 7,500 -1,951 Descending Houston Center
Thu 10:05:18 PM 30.3597 -97.8075 165° South 289 333 6,000 -1,220 Descending Houston Center
Thu 10:06:19 PM 30.2856 -97.7939 171° South 274 315 5,000 -488 Descending Houston Center
Thu 10:07:21 PM 30.2222 -97.7875 175° South 240 276 5,000 -488 Level Houston Center
Thu 10:08:22 PM 30.1600 -97.7797 174° South 226 260 4,000 -984 Descending Houston Center
Thu 10:09:23 PM 30.0997 -97.7669 170° South 220 253 3,000 -780 Descending Houston Center
Thu 10:10:25 PM 30.0314 -97.7433 163° South 218 251 2,400 -293 Descending Houston Center
Thu 10:11:26 PM 30.0111 -97.6964 117° Southeast 223 257 2,400 -148 Level Houston Center
Thu 10:12:27 PM 30.0558 -97.6517 41° Northeast 204 235 2,100 -244 Descending Houston Center
Thu 10:13:29 PM 30.1058 -97.6550 357° North 185 213 1,900 -488 Descending Houston Center
Thu 10:14:30 PM 30.1506 -97.6569 358° North 171 197 1,100 -787 Descending Houston Center

Login

Don't have an account? Register now (free) for customized features, flight alerts, and more!